Time;durP1;ratioP1;P1;durP2;ratioP2;P2;SDS_P1;SDS_P2;PMS_P1;PMS_P2;Temp;Humidity;BMP_temperature;BMP_pressure;BME280_temperature;BME280_humidity;BME280_pressure;Samples;Min_cycle;Max_cycle;Signal;HPM_P1;HPM_P2
2022/08/13 00:01:04;;;;;;;;;;;18.20;99.90;;;;;;4991392;28;20305;-83
2022/08/13 00:03:30;;;;;;;;;;;18.20;99.90;;;;;;5005508;28;19924;-82
2022/08/13 00:05:56;;;;;;;;;;;18.20;99.90;;;;;;5009409;28;19924;-82
2022/08/13 00:08:25;;;;;;;;;;;18.20;99.90;;;;;;5004907;28;20376;-83
2022/08/13 00:10:52;;;;;;;;;;;18.20;99.90;;;;;;5027213;28;20024;-84
2022/08/13 00:13:18;;;;;;;;;;;18.20;99.90;;;;;;4988752;28;21353;-84
2022/08/13 00:15:45;;;;;;;;;;;18.20;99.90;;;;;;5010372;28;19936;-84
2022/08/13 00:18:14;;;;;;;;;;;18.20;99.90;;;;;;5013399;28;19921;-85
2022/08/13 00:20:41;;;;;;;;;;;18.10;99.90;;;;;;5023998;28;19925;-84
2022/08/13 00:23:08;;;;;;;;;;;18.10;99.90;;;;;;4988851;28;19967;-84
2022/08/13 00:25:34;;;;;;;;;;;18.00;99.90;;;;;;4990333;28;19933;-85
2022/08/13 00:28:02;;;;;;;;;;;18.10;99.90;;;;;;5011364;28;19921;-85
2022/08/13 00:30:38;;;;;;;;;;;18.00;99.90;;;;;;5005705;28;19930;-85
2022/08/13 00:33:10;;;;;;;;;;;17.80;99.90;;;;;;4989829;28;19927;-85
2022/08/13 00:35:36;;;;;;;;;;;17.80;99.90;;;;;;5005650;28;19930;-85
2022/08/13 00:38:02;;;;;;;;;;;17.70;99.90;;;;;;4990174;28;20554;-85
2022/08/13 00:40:29;;;;;;;;;;;17.60;99.90;;;;;;5005827;28;19929;-83
2022/08/13 00:43:02;;;;;;;;;;;17.80;99.90;;;;;;5008498;28;20009;-86
2022/08/13 00:45:29;;;;;;;;;;;17.60;99.90;;;;;;5005779;28;19932;-83
2022/08/13 00:50:39;;;;;;;;;;;17.50;99.90;;;;;;5004873;28;19935;-84
2022/08/13 00:53:05;;;;;;;;;;;17.50;99.90;;;;;;5011801;28;20302;-84
2022/08/13 00:55:31;;;;;;;;;;;17.50;99.90;;;;;;5005872;28;19921;-84
2022/08/13 00:57:58;;;;;;;;;;;17.50;99.90;;;;;;5025635;28;20412;-84
2022/08/13 01:00:25;;;;;;;;;;;17.50;99.90;;;;;;5007555;28;19967;-86
2022/08/13 01:02:52;;;;;;;;;;;17.40;99.90;;;;;;5002678;28;19921;-84
2022/08/13 01:05:23;;;;;;;;;;;17.40;99.90;;;;;;5029063;28;20007;-84
2022/08/13 01:07:49;;;;;;;;;;;17.40;99.90;;;;;;5004057;28;19972;-86
2022/08/13 01:10:15;;;;;;;;;;;17.40;99.90;;;;;;5026739;28;20621;-83
2022/08/13 01:12:41;;;;;;;;;;;17.30;99.90;;;;;;5008860;28;19924;-83
2022/08/13 01:15:12;;;;;;;;;;;17.30;99.90;;;;;;4992185;28;20032;-83
2022/08/13 01:17:40;;;;;;;;;;;17.20;99.90;;;;;;5005635;28;19968;-83
2022/08/13 01:20:09;;;;;;;;;;;17.20;99.90;;;;;;5026610;28;19927;-82
2022/08/13 01:22:35;;;;;;;;;;;17.10;99.90;;;;;;5024968;28;20008;-84
2022/08/13 01:25:01;;;;;;;;;;;17.30;99.90;;;;;;5007132;28;20011;-84
2022/08/13 01:27:27;;;;;;;;;;;17.00;99.90;;;;;;5006416;28;19921;-84
2022/08/13 01:29:53;;;;;;;;;;;17.00;99.90;;;;;;5006791;28;19921;-84
2022/08/13 01:32:21;;;;;;;;;;;17.00;99.90;;;;;;5006260;28;19933;-84
2022/08/13 01:34:48;;;;;;;;;;;16.90;99.90;;;;;;5006998;28;19928;-83
2022/08/13 01:37:17;;;;;;;;;;;16.90;99.90;;;;;;5022232;28;19921;-84
2022/08/13 01:39:44;;;;;;;;;;;16.90;99.90;;;;;;4991683;28;19935;-84
2022/08/13 01:42:13;;;;;;;;;;;16.90;99.90;;;;;;5006184;28;19921;-84
2022/08/13 01:44:39;;;;;;;;;;;16.80;99.90;;;;;;5003962;28;19933;-83
2022/08/13 01:52:34;;;;;;;;;;;16.70;99.90;;;;;;5025746;28;19927;-83
2022/08/13 01:55:01;;;;;;;;;;;16.70;99.90;;;;;;5011440;28;20023;-84
2022/08/13 01:57:26;;;;;;;;;;;16.60;99.90;;;;;;5005550;28;19929;-83
2022/08/13 01:59:53;;;;;;;;;;;16.60;99.90;;;;;;4990355;28;20290;-83
2022/08/13 02:02:18;;;;;;;;;;;16.60;99.90;;;;;;5021959;28;19928;-83
2022/08/13 02:04:44;;;;;;;;;;;16.60;99.90;;;;;;5004718;28;19929;-83
2022/08/13 02:07:13;;;;;;;;;;;16.60;99.90;;;;;;5007319;28;19931;-83
2022/08/13 02:09:41;;;;;;;;;;;16.60;99.90;;;;;;5010598;28;19928;-83
2022/08/13 02:12:07;;;;;;;;;;;16.60;99.90;;;;;;5027444;28;19967;-83
2022/08/13 02:14:33;;;;;;;;;;;16.50;99.90;;;;;;5010805;28;19925;-83
2022/08/13 02:16:59;;;;;;;;;;;16.50;99.90;;;;;;5009453;28;20421;-84
2022/08/13 02:19:25;;;;;;;;;;;16.50;99.90;;;;;;5025655;28;19933;-84
2022/08/13 02:21:51;;;;;;;;;;;16.50;99.90;;;;;;5024616;28;19925;-84
2022/08/13 02:24:16;;;;;;;;;;;16.50;99.90;;;;;;5009519;28;19927;-84
2022/08/13 02:26:42;;;;;;;;;;;16.40;99.90;;;;;;5027120;28;19971;-83
2022/08/13 02:29:09;;;;;;;;;;;16.40;99.90;;;;;;4994511;28;19929;-84
2022/08/13 02:31:34;;;;;;;;;;;16.40;99.90;;;;;;4994766;28;19972;-84
2022/08/13 02:34:01;;;;;;;;;;;16.50;99.90;;;;;;5012288;28;19972;-85
2022/08/13 02:36:27;;;;;;;;;;;16.40;99.90;;;;;;5003719;28;20348;-84
2022/08/13 02:39:03;;;;;;;;;;;16.30;99.90;;;;;;5008959;28;20011;-84
2022/08/13 02:41:38;;;;;;;;;;;16.30;99.90;;;;;;4994657;28;19921;-83
2022/08/13 02:44:05;;;;;;;;;;;16.30;99.90;;;;;;4992239;28;19929;-84
2022/08/13 02:46:30;;;;;;;;;;;16.20;99.90;;;;;;5011070;28;20294;-84
2022/08/13 02:48:59;;;;;;;;;;;16.20;99.90;;;;;;5014755;28;19928;-84
2022/08/13 02:51:26;;;;;;;;;;;16.20;99.90;;;;;;5014955;28;19932;-84
2022/08/13 02:53:52;;;;;;;;;;;16.20;99.90;;;;;;4999091;28;20061;-84
2022/08/13 02:56:18;;;;;;;;;;;16.20;99.90;;;;;;4998628;28;19928;-83
2022/08/13 02:58:43;;;;;;;;;;;16.10;99.90;;;;;;4998136;28;19921;-84
2022/08/13 03:01:11;;;;;;;;;;;16.10;99.90;;;;;;5032122;28;19924;-83
2022/08/13 03:03:37;;;;;;;;;;;16.10;99.90;;;;;;5013977;28;19921;-83
2022/08/13 03:06:03;;;;;;;;;;;16.00;99.90;;;;;;5014593;28;20185;-83
2022/08/13 03:08:29;;;;;;;;;;;16.00;99.90;;;;;;5013324;28;19928;-83
2022/08/13 03:10:55;;;;;;;;;;;16.00;99.90;;;;;;5014308;28;19925;-83
2022/08/13 03:13:29;;;;;;;;;;;15.90;99.90;;;;;;5013813;28;19966;-83
2022/08/13 03:15:56;;;;;;;;;;;15.90;99.90;;;;;;5028929;28;19924;-83
2022/08/13 03:18:22;;;;;;;;;;;15.90;99.90;;;;;;5025248;28;20440;-84
2022/08/13 03:20:49;;;;;;;;;;;15.80;99.90;;;;;;5028171;28;19929;-84
2022/08/13 03:23:14;;;;;;;;;;;15.80;99.90;;;;;;4994731;28;19925;-84
2022/08/13 03:25:40;;;;;;;;;;;15.80;99.90;;;;;;5031036;28;20413;-84
2022/08/13 03:28:06;;;;;;;;;;;15.70;99.90;;;;;;5014063;28;19940;-84
2022/08/13 03:30:34;;;;;;;;;;;15.70;99.90;;;;;;4997270;28;20417;-84
2022/08/13 03:33:07;;;;;;;;;;;15.70;99.90;;;;;;5014447;28;20020;-84
2022/08/13 03:35:33;;;;;;;;;;;15.70;99.90;;;;;;4996756;28;19956;-84
2022/08/13 03:37:59;;;;;;;;;;;15.90;99.90;;;;;;4996346;28;19959;-84
2022/08/13 03:40:25;;;;;;;;;;;15.70;99.90;;;;;;5031515;28;19957;-83
2022/08/13 03:42:51;;;;;;;;;;;15.60;99.90;;;;;;5012334;28;19987;-84
2022/08/13 03:45:18;;;;;;;;;;;15.50;99.90;;;;;;4997087;28;20394;-83
2022/08/13 03:47:44;;;;;;;;;;;15.60;99.90;;;;;;5012422;28;19921;-83
2022/08/13 03:50:10;;;;;;;;;;;15.60;99.90;;;;;;5012118;28;19931;-83
2022/08/13 03:52:36;;;;;;;;;;;15.60;99.90;;;;;;5011549;28;19987;-83
2022/08/13 03:55:04;;;;;;;;;;;15.60;99.90;;;;;;5013139;28;19968;-84
2022/08/13 03:57:30;;;;;;;;;;;15.60;99.90;;;;;;4996768;28;20377;-83
2022/08/13 03:59:57;;;;;;;;;;;15.60;99.90;;;;;;5011822;28;19928;-83
2022/08/13 04:02:23;;;;;;;;;;;15.60;99.90;;;;;;5030685;28;19945;-83
2022/08/13 04:04:50;;;;;;;;;;;15.70;99.90;;;;;;4994062;28;19972;-84
2022/08/13 04:07:22;;;;;;;;;;;15.60;99.90;;;;;;5030678;28;19921;-83
2022/08/13 04:09:48;;;;;;;;;;;15.60;99.90;;;;;;5012375;28;19928;-83
2022/08/13 04:12:15;;;;;;;;;;;15.50;99.90;;;;;;5012034;28;19921;-83
2022/08/13 04:14:41;;;;;;;;;;;15.60;99.90;;;;;;4995677;28;20408;-84
2022/08/13 04:17:10;;;;;;;;;;;15.70;99.90;;;;;;5032369;28;19905;-83
2022/08/13 04:19:42;;;;;;;;;;;15.80;99.90;;;;;;5019284;28;19916;-84
2022/08/13 04:22:10;;;;;;;;;;;15.70;99.90;;;;;;5034411;28;19927;-83
2022/08/13 04:24:35;;;;;;;;;;;15.70;99.90;;;;;;5021495;28;19920;-84
2022/08/13 04:27:02;;;;;;;;;;;15.70;99.90;;;;;;5042163;28;19924;-83
2022/08/13 04:29:27;;;;;;;;;;;15.70;99.90;;;;;;5015800;28;19935;-83
2022/08/13 04:31:57;;;;;;;;;;;15.70;99.90;;;;;;5011283;28;19921;-83
2022/08/13 04:34:26;;;;;;;;;;;15.70;99.90;;;;;;5014131;28;19921;-83
2022/08/13 04:36:52;;;;;;;;;;;15.80;99.90;;;;;;5029794;28;19932;-83
2022/08/13 04:39:19;;;;;;;;;;;15.70;99.90;;;;;;4995621;28;20015;-82
2022/08/13 04:41:44;;;;;;;;;;;15.80;99.90;;;;;;5011845;28;20148;-82
2022/08/13 04:44:10;;;;;;;;;;;15.80;99.90;;;;;;4996955;28;20275;-82
2022/08/13 04:46:37;;;;;;;;;;;15.80;99.90;;;;;;5012309;28;20309;-83
2022/08/13 04:49:03;;;;;;;;;;;15.90;99.90;;;;;;5012727;28;20378;-83
2022/08/13 04:51:31;;;;;;;;;;;15.80;99.90;;;;;;4997079;28;19936;-82
2022/08/13 04:53:56;;;;;;;;;;;15.90;99.90;;;;;;5027984;28;19925;-83
2022/08/13 04:56:22;;;;;;;;;;;15.90;99.90;;;;;;5015891;28;19927;-83
2022/08/13 04:58:48;;;;;;;;;;;16.00;99.90;;;;;;5011999;28;19936;-83
2022/08/13 05:01:13;;;;;;;;;;;16.00;99.90;;;;;;4994957;28;19988;-82
2022/08/13 05:03:41;;;;;;;;;;;16.10;99.90;;;;;;5029545;28;20008;-83
2022/08/13 05:06:08;;;;;;;;;;;16.20;99.90;;;;;;5012067;28;19925;-83
2022/08/13 05:08:33;;;;;;;;;;;16.20;99.90;;;;;;5011288;28;19974;-85
2022/08/13 05:10:59;;;;;;;;;;;16.30;99.90;;;;;;5012075;28;19928;-83
2022/08/13 05:13:27;;;;;;;;;;;16.50;99.90;;;;;;5030158;28;20497;-83
2022/08/13 05:15:59;;;;;;;;;;;16.90;99.90;;;;;;5028670;28;20623;-83
2022/08/13 05:18:25;;;;;;;;;;;17.60;99.90;;;;;;5030369;28;19928;-83
2022/08/13 05:20:54;;;;;;;;;;;18.40;99.90;;;;;;4995572;28;19920;-82
2022/08/13 05:23:20;;;;;;;;;;;18.30;99.90;;;;;;5012241;28;20465;-82
2022/08/13 05:25:46;;;;;;;;;;;18.20;99.90;;;;;;5030018;28;20420;-82
2022/08/13 05:28:11;;;;;;;;;;;18.10;99.90;;;;;;4995692;28;19980;-83
2022/08/13 05:30:38;;;;;;;;;;;18.00;99.90;;;;;;5012515;28;19921;-83
2022/08/13 05:33:14;;;;;;;;;;;18.00;99.90;;;;;;4995982;28;19928;-83
2022/08/13 05:35:50;;;;;;;;;;;17.90;99.90;;;;;;5010525;28;20389;-83
2022/08/13 05:38:17;;;;;;;;;;;17.90;99.90;;;;;;4995716;28;19935;-83
2022/08/13 05:40:43;;;;;;;;;;;17.80;99.90;;;;;;5016584;28;19921;-83
2022/08/13 05:43:09;;;;;;;;;;;17.90;99.90;;;;;;5011174;28;20002;-83
2022/08/13 05:45:35;;;;;;;;;;;17.90;99.90;;;;;;4995278;28;20472;-83
2022/08/13 05:48:01;;;;;;;;;;;17.90;99.90;;;;;;5011214;28;19921;-82
2022/08/13 05:50:32;;;;;;;;;;;17.90;99.90;;;;;;5011312;28;19921;-83
2022/08/13 05:53:05;;;;;;;;;;;17.90;99.90;;;;;;5028808;28;20015;-84
2022/08/13 05:55:31;;;;;;;;;;;17.90;99.90;;;;;;5011641;28;19921;-83
2022/08/13 05:57:57;;;;;;;;;;;18.00;99.90;;;;;;5010785;28;19975;-83
2022/08/13 06:03:25;;;;;;;;;;;18.00;99.90;;;;;;5027620;28;19983;-82
2022/08/13 06:05:54;;;;;;;;;;;17.80;99.90;;;;;;4994751;28;20012;-83
2022/08/13 06:08:23;;;;;;;;;;;18.10;99.90;;;;;;4994530;28;20031;-82
2022/08/13 06:10:49;;;;;;;;;;;18.10;99.90;;;;;;5009926;28;20012;-82
2022/08/13 06:13:16;;;;;;;;;;;18.20;99.90;;;;;;5029073;28;20029;-82
2022/08/13 06:15:43;;;;;;;;;;;18.30;99.90;;;;;;4991788;28;19921;-83
2022/08/13 06:18:11;;;;;;;;;;;18.30;99.90;;;;;;5010990;28;19968;-84
2022/08/13 06:20:40;;;;;;;;;;;18.40;99.90;;;;;;5011110;28;19931;-86
2022/08/13 06:23:06;;;;;;;;;;;18.40;99.90;;;;;;5011174;28;19925;-84
2022/08/13 06:25:32;;;;;;;;;;;18.50;99.90;;;;;;5011139;28;19920;-84
2022/08/13 06:28:00;;;;;;;;;;;18.60;99.90;;;;;;5012094;28;19970;-82
2022/08/13 06:30:28;;;;;;;;;;;18.80;99.90;;;;;;4995716;28;19928;-82
2022/08/13 06:32:57;;;;;;;;;;;18.80;99.90;;;;;;4994112;28;20007;-82
2022/08/13 06:35:23;;;;;;;;;;;18.90;99.90;;;;;;5012027;28;20008;-83
2022/08/13 06:37:49;;;;;;;;;;;19.30;99.90;;;;;;5011529;28;19925;-82
2022/08/13 06:40:15;;;;;;;;;;;19.60;99.90;;;;;;5011240;28;20301;-83
2022/08/13 06:42:43;;;;;;;;;;;19.60;99.90;;;;;;5010971;28;20514;-83
2022/08/13 06:45:10;;;;;;;;;;;19.70;99.90;;;;;;4993576;28;20297;-83
2022/08/13 06:47:36;;;;;;;;;;;19.90;99.90;;;;;;5010997;28;20409;-83
2022/08/13 06:50:09;;;;;;;;;;;20.30;99.90;;;;;;5011156;28;19996;-83
2022/08/13 06:52:35;;;;;;;;;;;20.60;99.90;;;;;;4993947;28;19925;-83
2022/08/13 06:55:01;;;;;;;;;;;20.60;99.90;;;;;;5028077;28;20075;-82
2022/08/13 06:57:27;;;;;;;;;;;20.60;99.90;;;;;;5014466;28;20012;-86
2022/08/13 06:59:57;;;;;;;;;;;20.60;99.90;;;;;;4997518;28;20397;-85
2022/08/13 07:02:24;;;;;;;;;;;20.60;99.90;;;;;;5010403;28;19921;-87
2022/08/13 07:04:49;;;;;;;;;;;20.70;99.90;;;;;;5028454;28;19929;-86
2022/08/13 07:07:17;;;;;;;;;;;20.70;99.90;;;;;;5027763;28;19932;-86
2022/08/13 07:09:44;;;;;;;;;;;20.70;99.90;;;;;;4994635;28;19925;-85
2022/08/13 07:12:10;;;;;;;;;;;20.80;99.90;;;;;;5028994;28;19935;-86
2022/08/13 07:14:36;;;;;;;;;;;20.90;99.90;;;;;;5011042;28;19927;-83
2022/08/13 07:17:02;;;;;;;;;;;21.00;99.90;;;;;;5020940;28;20313;-84
2022/08/13 07:19:28;;;;;;;;;;;21.10;99.90;;;;;;5028549;28;19948;-85
2022/08/13 07:21:54;;;;;;;;;;;21.20;99.90;;;;;;5028119;28;19921;-86
2022/08/13 07:24:19;;;;;;;;;;;21.30;99.90;;;;;;5011892;28;19921;-88
2022/08/13 07:26:45;;;;;;;;;;;21.40;99.90;;;;;;5030675;28;19936;-87
2022/08/13 07:29:12;;;;;;;;;;;21.60;99.90;;;;;;5035616;28;19990;-86
2022/08/13 07:31:40;;;;;;;;;;;21.90;99.90;;;;;;5051013;28;19909;-84
2022/08/13 07:34:06;;;;;;;;;;;22.20;99.90;;;;;;5036307;28;19929;-87
2022/08/13 07:36:38;;;;;;;;;;;22.50;99.90;;;;;;5039212;28;19932;-82
2022/08/13 07:39:08;;;;;;;;;;;22.80;99.90;;;;;;5029248;28;19928;-85
2022/08/13 07:41:35;;;;;;;;;;;23.10;99.90;;;;;;5031165;28;19921;-83
2022/08/13 07:44:02;;;;;;;;;;;23.50;99.90;;;;;;5013667;28;19925;-85
2022/08/13 07:46:29;;;;;;;;;;;24.00;99.90;;;;;;5016828;28;19925;-82
2022/08/13 07:48:56;;;;;;;;;;;24.40;99.90;;;;;;4996737;28;19932;-87
2022/08/13 07:51:22;;;;;;;;;;;24.80;99.90;;;;;;5014465;28;19928;-84
2022/08/13 07:53:54;;;;;;;;;;;25.30;99.90;;;;;;5031472;28;19925;-86
2022/08/13 07:56:31;;;;;;;;;;;25.80;99.90;;;;;;5013233;28;20184;-83
2022/08/13 07:59:02;;;;;;;;;;;26.60;99.90;;;;;;4997253;28;19921;-85
2022/08/13 08:01:29;;;;;;;;;;;27.60;99.90;;;;;;4995551;28;20008;-87
2022/08/13 08:03:57;;;;;;;;;;;27.70;99.90;;;;;;5015781;28;20385;-87
2022/08/13 08:06:22;;;;;;;;;;;27.70;99.90;;;;;;5017382;28;19925;-83
2022/08/13 08:08:49;;;;;;;;;;;27.80;99.30;;;;;;5019877;28;19928;-87
2022/08/13 08:14:01;;;;;;;;;;;28.00;98.00;;;;;;4956143;28;19925;-82
2022/08/13 08:16:29;;;;;;;;;;;28.20;96.40;;;;;;5018546;28;19963;-84
2022/08/13 08:18:54;;;;;;;;;;;28.40;97.10;;;;;;5013709;28;20358;-85
2022/08/13 08:21:23;;;;;;;;;;;28.50;96.60;;;;;;5016960;28;19963;-83
2022/08/13 08:23:50;;;;;;;;;;;28.70;96.80;;;;;;4997219;28;19924;-86
2022/08/13 08:26:17;;;;;;;;;;;28.90;96.00;;;;;;5018537;28;19970;-89
2022/08/13 08:28:45;;;;;;;;;;;29.00;94.60;;;;;;5000710;28;19925;-88
2022/08/13 08:31:11;;;;;;;;;;;29.20;92.10;;;;;;5016432;28;19936;-84
2022/08/13 08:33:40;;;;;;;;;;;29.30;93.20;;;;;;5014948;28;19921;-87
2022/08/13 08:36:06;;;;;;;;;;;29.50;92.70;;;;;;5024250;28;20389;-83
2022/08/13 08:44:02;;;;;;;;;;;30.00;89.80;;;;;;5029365;28;19921;-87
2022/08/13 08:46:33;;;;;;;;;;;30.20;90.90;;;;;;5018218;28;20015;-85
2022/08/13 08:49:00;;;;;;;;;;;30.40;89.70;;;;;;5021327;28;20444;-83
2022/08/13 08:51:26;;;;;;;;;;;30.60;90.60;;;;;;5016007;28;19921;-84
2022/08/13 08:53:52;;;;;;;;;;;30.80;88.00;;;;;;5028290;28;19935;-86
2022/08/13 08:56:20;;;;;;;;;;;30.90;86.90;;;;;;4994754;28;19921;-83
2022/08/13 08:58:46;;;;;;;;;;;31.00;86.50;;;;;;5010626;28;20019;-83
2022/08/13 09:01:12;;;;;;;;;;;31.10;87.00;;;;;;5011906;28;19920;-83
2022/08/13 09:03:40;;;;;;;;;;;31.20;83.50;;;;;;5006165;28;19931;-84
2022/08/13 09:06:08;;;;;;;;;;;31.20;81.30;;;;;;4991680;28;19925;-86
2022/08/13 09:08:35;;;;;;;;;;;31.30;82.30;;;;;;5009009;28;19925;-87
2022/08/13 09:11:02;;;;;;;;;;;31.40;78.50;;;;;;4994307;28;20015;-87
2022/08/13 09:13:28;;;;;;;;;;;31.50;82.00;;;;;;5008095;28;20003;-84
2022/08/13 09:15:55;;;;;;;;;;;31.50;77.30;;;;;;4992653;28;19925;-85
2022/08/13 09:18:21;;;;;;;;;;;31.70;78.60;;;;;;5016085;28;20329;-86
2022/08/13 09:20:47;;;;;;;;;;;31.80;76.80;;;;;;5007408;28;20008;-87
2022/08/13 09:23:14;;;;;;;;;;;31.90;75.50;;;;;;4997148;28;20366;-86
2022/08/13 09:25:41;;;;;;;;;;;32.00;75.90;;;;;;4997062;28;20368;-86
2022/08/13 09:28:08;;;;;;;;;;;32.10;73.30;;;;;;5027333;28;20008;-84
2022/08/13 09:30:37;;;;;;;;;;;32.30;75.80;;;;;;5009861;28;19947;-87
2022/08/13 09:33:03;;;;;;;;;;;32.30;73.80;;;;;;5011211;28;20326;-88
2022/08/13 09:35:29;;;;;;;;;;;32.40;70.80;;;;;;4995345;28;20447;-87
2022/08/13 09:37:56;;;;;;;;;;;32.40;70.00;;;;;;5010281;28;19924;-86
2022/08/13 09:40:28;;;;;;;;;;;32.50;72.30;;;;;;4992714;28;19920;-87
2022/08/13 09:43:02;;;;;;;;;;;32.60;70.70;;;;;;5007007;28;20018;-86
2022/08/13 09:45:29;;;;;;;;;;;32.80;70.00;;;;;;5022279;28;19994;-85
2022/08/13 09:47:55;;;;;;;;;;;32.80;70.10;;;;;;4990851;28;20111;-85
2022/08/13 09:50:21;;;;;;;;;;;32.80;69.80;;;;;;5010635;28;20086;-86
2022/08/13 09:52:47;;;;;;;;;;;32.90;71.20;;;;;;4994554;28;20316;-83
2022/08/13 09:55:13;;;;;;;;;;;33.10;66.90;;;;;;5008857;28;20359;-86
2022/08/13 09:57:48;;;;;;;;;;;33.20;69.60;;;;;;5028409;28;20014;-85
2022/08/13 10:00:22;;;;;;;;;;;33.30;69.20;;;;;;5010004;28;20015;-83
2022/08/13 10:02:50;;;;;;;;;;;33.30;68.70;;;;;;4993917;28;19925;-83
2022/08/13 10:05:17;;;;;;;;;;;33.40;68.40;;;;;;5010904;28;19964;-83
2022/08/13 10:07:42;;;;;;;;;;;33.40;66.50;;;;;;5010477;28;19921;-87
2022/08/13 10:10:08;;;;;;;;;;;33.30;66.40;;;;;;5025634;28;20015;-87
2022/08/13 10:12:34;;;;;;;;;;;33.30;65.50;;;;;;5028394;28;20366;-86
2022/08/13 10:15:00;;;;;;;;;;;33.20;64.80;;;;;;5010908;28;19940;-83
2022/08/13 10:17:26;;;;;;;;;;;33.10;63.40;;;;;;5018620;28;20392;-86
2022/08/13 10:19:54;;;;;;;;;;;33.00;64.20;;;;;;5027306;28;19921;-87
2022/08/13 10:22:20;;;;;;;;;;;33.00;63.80;;;;;;4992214;28;19926;-85
2022/08/13 10:24:46;;;;;;;;;;;32.90;63.90;;;;;;5010266;28;19967;-86
2022/08/13 10:27:13;;;;;;;;;;;33.00;63.90;;;;;;4994444;28;19967;-83
2022/08/13 10:29:38;;;;;;;;;;;33.00;63.70;;;;;;5010065;28;20352;-85
2022/08/13 10:32:06;;;;;;;;;;;33.10;63.60;;;;;;5010767;28;19947;-84
2022/08/13 10:34:31;;;;;;;;;;;33.00;63.20;;;;;;5022241;28;19929;-85
2022/08/13 10:37:03;;;;;;;;;;;33.00;62.30;;;;;;5017686;28;20293;-84
2022/08/13 10:39:29;;;;;;;;;;;32.90;63.10;;;;;;5011062;28;19995;-85
2022/08/13 10:41:55;;;;;;;;;;;33.00;63.00;;;;;;5016951;28;20021;-87
2022/08/13 10:44:20;;;;;;;;;;;33.00;60.60;;;;;;5016098;28;19997;-86
2022/08/13 10:46:46;;;;;;;;;;;33.00;62.10;;;;;;5016465;28;19947;-86
2022/08/13 10:49:13;;;;;;;;;;;33.10;61.70;;;;;;5017083;28;19928;-87
2022/08/13 10:51:39;;;;;;;;;;;33.10;62.10;;;;;;5013146;28;19928;-86
2022/08/13 10:54:06;;;;;;;;;;;33.10;60.40;;;;;;4993988;28;20366;-85
2022/08/13 10:56:33;;;;;;;;;;;33.00;61.20;;;;;;5005237;28;20356;-86
2022/08/13 10:59:00;;;;;;;;;;;33.00;61.00;;;;;;5006618;28;20301;-86
2022/08/13 11:01:26;;;;;;;;;;;32.90;58.60;;;;;;5008134;28;20851;-86
2022/08/13 11:03:53;;;;;;;;;;;32.90;61.20;;;;;;5020930;28;20181;-86
2022/08/13 11:06:19;;;;;;;;;;;33.00;60.10;;;;;;5030939;28;19975;-85
2022/08/13 11:08:47;;;;;;;;;;;33.00;60.90;;;;;;5019480;28;19929;-86
2022/08/13 11:11:12;;;;;;;;;;;33.20;61.50;;;;;;5005698;28;20429;-84
2022/08/13 11:13:38;;;;;;;;;;;33.10;59.80;;;;;;5022399;28;19921;-85
2022/08/13 11:18:55;;;;;;;;;;;33.00;60.50;;;;;;4977542;28;21346;-86
2022/08/13 11:21:21;;;;;;;;;;;33.00;59.60;;;;;;5019677;28;19925;-85
2022/08/13 11:23:46;;;;;;;;;;;33.10;60.10;;;;;;5013593;28;19921;-87
2022/08/13 11:26:12;;;;;;;;;;;33.10;59.40;;;;;;5011349;28;19925;-87
2022/08/13 11:28:37;;;;;;;;;;;33.10;60.30;;;;;;5013027;28;20369;-85
2022/08/13 11:31:03;;;;;;;;;;;33.20;60.20;;;;;;5002622;28;19936;-86
2022/08/13 11:33:30;;;;;;;;;;;33.20;58.60;;;;;;5017417;28;19926;-84
2022/08/13 11:35:56;;;;;;;;;;;33.20;60.10;;;;;;5017721;28;19976;-86
2022/08/13 11:38:22;;;;;;;;;;;33.20;58.60;;;;;;5006669;28;20229;-85
2022/08/13 11:40:49;;;;;;;;;;;33.30;58.20;;;;;;4992974;28;19951;-85
2022/08/13 11:43:15;;;;;;;;;;;33.40;60.40;;;;;;5000165;28;20463;-86
2022/08/13 11:45:40;;;;;;;;;;;33.50;59.10;;;;;;5016579;28;19979;-88
2022/08/13 11:48:06;;;;;;;;;;;33.50;58.90;;;;;;5024594;28;19983;-86
2022/08/13 11:50:32;;;;;;;;;;;33.60;58.80;;;;;;5024430;28;19983;-84
2022/08/13 11:52:57;;;;;;;;;;;33.50;58.80;;;;;;4996984;28;19925;-85
2022/08/13 11:55:23;;;;;;;;;;;33.50;58.60;;;;;;5023418;28;19921;-85
2022/08/13 11:57:57;;;;;;;;;;;33.50;58.30;;;;;;5023184;28;19929;-87
2022/08/13 12:00:23;;;;;;;;;;;33.40;58.60;;;;;;5017880;28;19928;-84
2022/08/13 12:02:48;;;;;;;;;;;33.40;58.00;;;;;;5032808;28;19925;-86
2022/08/13 12:05:14;;;;;;;;;;;33.40;57.50;;;;;;5025143;28;19921;-85
2022/08/13 12:07:40;;;;;;;;;;;33.30;58.10;;;;;;5012131;28;19924;-83
2022/08/13 12:10:06;;;;;;;;;;;33.30;57.80;;;;;;5015553;28;19952;-88
2022/08/13 12:12:31;;;;;;;;;;;33.30;57.60;;;;;;5017244;28;19925;-85
2022/08/13 12:14:57;;;;;;;;;;;33.40;57.50;;;;;;5015372;28;19929;-85
2022/08/13 12:17:23;;;;;;;;;;;33.40;57.30;;;;;;5021543;28;19928;-86
2022/08/13 12:19:48;;;;;;;;;;;33.40;58.70;;;;;;5012963;28;19947;-86
2022/08/13 12:22:14;;;;;;;;;;;33.40;57.50;;;;;;5021985;28;20433;-86
2022/08/13 12:24:39;;;;;;;;;;;33.50;58.30;;;;;;5012486;28;20003;-87
2022/08/13 12:27:05;;;;;;;;;;;33.50;57.60;;;;;;5018860;28;19925;-86
2022/08/13 12:29:31;;;;;;;;;;;33.50;57.00;;;;;;5000984;28;19963;-84
2022/08/13 12:31:57;;;;;;;;;;;33.50;56.50;;;;;;5004551;28;19929;-86
2022/08/13 12:34:22;;;;;;;;;;;33.50;55.70;;;;;;5015080;28;19925;-84
2022/08/13 12:36:48;;;;;;;;;;;33.40;57.30;;;;;;5016993;28;20343;-85
2022/08/13 12:39:13;;;;;;;;;;;33.30;56.40;;;;;;5013104;28;19929;-84
2022/08/13 12:41:39;;;;;;;;;;;33.30;55.80;;;;;;5016428;28;19921;-84
2022/08/13 12:44:04;;;;;;;;;;;33.30;54.70;;;;;;4993981;28;19974;-82
2022/08/13 12:46:30;;;;;;;;;;;33.20;55.80;;;;;;5009827;28;19933;-85
2022/08/13 12:48:56;;;;;;;;;;;33.10;56.50;;;;;;5015697;28;19929;-83
2022/08/13 12:51:21;;;;;;;;;;;33.10;54.00;;;;;;5017275;28;19947;-84
2022/08/13 12:53:47;;;;;;;;;;;33.10;56.20;;;;;;5013748;28;19925;-86
2022/08/13 12:56:13;;;;;;;;;;;33.00;55.80;;;;;;5015166;28;19933;-84
2022/08/13 12:58:38;;;;;;;;;;;33.00;56.60;;;;;;5004830;28;19963;-84
2022/08/13 13:01:04;;;;;;;;;;;33.00;55.70;;;;;;5018354;28;19948;-86
2022/08/13 13:03:29;;;;;;;;;;;33.00;55.90;;;;;;5028590;28;19975;-85
2022/08/13 13:05:55;;;;;;;;;;;32.90;55.60;;;;;;5037113;28;20008;-84
2022/08/13 13:08:28;;;;;;;;;;;33.00;56.20;;;;;;5028221;28;19951;-84
2022/08/13 13:10:58;;;;;;;;;;;33.00;56.90;;;;;;5048179;28;19948;-85
2022/08/13 13:13:24;;;;;;;;;;;33.20;56.20;;;;;;5016144;28;19989;-84
2022/08/13 13:15:50;;;;;;;;;;;33.20;55.90;;;;;;5009305;28;19925;-82
2022/08/13 13:18:19;;;;;;;;;;;33.20;55.50;;;;;;5012336;28;19933;-83
2022/08/13 13:20:45;;;;;;;;;;;33.10;55.80;;;;;;5012242;28;19927;-86
2022/08/13 13:23:12;;;;;;;;;;;33.10;56.40;;;;;;5015627;28;19925;-85
2022/08/13 13:25:40;;;;;;;;;;;33.10;54.60;;;;;;4989215;28;19925;-86
2022/08/13 13:28:07;;;;;;;;;;;33.10;56.20;;;;;;5011195;28;19925;-83
2022/08/13 13:30:34;;;;;;;;;;;33.00;55.50;;;;;;4999151;28;19921;-83
2022/08/13 13:32:59;;;;;;;;;;;32.80;54.50;;;;;;5008222;28;19921;-86
2022/08/13 13:35:25;;;;;;;;;;;32.60;55.30;;;;;;5010602;28;19925;-85
2022/08/13 13:37:52;;;;;;;;;;;32.60;56.40;;;;;;4999397;28;19971;-87
2022/08/13 13:40:18;;;;;;;;;;;32.60;55.90;;;;;;5004875;28;20352;-86
2022/08/13 13:42:43;;;;;;;;;;;32.70;57.10;;;;;;4995064;28;19921;-87
2022/08/13 13:45:09;;;;;;;;;;;32.70;56.00;;;;;;4998661;28;19971;-83
2022/08/13 13:47:36;;;;;;;;;;;32.70;55.50;;;;;;5009115;28;19987;-87
2022/08/13 13:50:06;;;;;;;;;;;32.70;56.20;;;;;;5010841;28;20382;-85
2022/08/13 13:52:35;;;;;;;;;;;32.80;56.50;;;;;;5011905;28;19971;-86
2022/08/13 13:55:04;;;;;;;;;;;32.80;55.70;;;;;;5006098;28;20390;-87
2022/08/13 13:57:33;;;;;;;;;;;32.70;55.90;;;;;;5022215;28;20279;-85
2022/08/13 13:59:58;;;;;;;;;;;32.80;56.50;;;;;;4996165;28;19933;-82
2022/08/13 14:02:24;;;;;;;;;;;32.70;55.90;;;;;;5020266;28;19929;-86
2022/08/13 14:04:49;;;;;;;;;;;32.70;56.50;;;;;;4997973;28;20046;-85
2022/08/13 14:07:17;;;;;;;;;;;32.60;57.10;;;;;;4997476;28;19956;-84
2022/08/13 14:09:43;;;;;;;;;;;32.70;57.40;;;;;;5016952;28;19975;-86
2022/08/13 14:12:09;;;;;;;;;;;32.70;56.80;;;;;;5026332;28;20007;-84
2022/08/13 14:14:35;;;;;;;;;;;32.60;57.00;;;;;;5010376;28;20536;-85
2022/08/13 14:17:03;;;;;;;;;;;32.60;57.60;;;;;;5025062;28;19921;-86
2022/08/13 14:19:30;;;;;;;;;;;32.60;57.10;;;;;;5017100;28;19968;-87
2022/08/13 14:21:57;;;;;;;;;;;32.50;57.30;;;;;;5011363;28;19986;-85
2022/08/13 14:24:24;;;;;;;;;;;32.50;57.70;;;;;;4992149;28;19980;-85
2022/08/13 14:26:49;;;;;;;;;;;32.60;57.20;;;;;;4991780;28;19932;-86
2022/08/13 14:29:16;;;;;;;;;;;32.50;56.80;;;;;;5011091;28;19925;-84
2022/08/13 14:31:42;;;;;;;;;;;32.40;57.90;;;;;;4989983;28;19931;-85
2022/08/13 14:34:09;;;;;;;;;;;32.20;58.00;;;;;;5020721;28;20015;-87
2022/08/13 14:36:34;;;;;;;;;;;32.20;57.10;;;;;;5017056;28;20253;-85